createdAt,value
2022-11-29T00:01:02.590Z,8.26
2022-11-29T00:03:30.980Z,8.18
2022-11-29T00:06:04.561Z,8.29
2022-11-29T00:08:32.218Z,8.30
2022-11-29T00:11:06.116Z,8.11
2022-11-29T00:13:32.773Z,8.02
2022-11-29T00:16:03.702Z,8.07
2022-11-29T00:18:31.547Z,8.08
2022-11-29T00:20:59.250Z,8.15
2022-11-29T00:23:27.062Z,8.32
2022-11-29T00:25:54.642Z,8.39
2022-11-29T00:28:23.588Z,8.38
2022-11-29T00:30:51.256Z,8.18
2022-11-29T00:33:18.956Z,8.12
2022-11-29T00:35:46.473Z,8.09
2022-11-29T00:38:14.056Z,7.96
2022-11-29T00:40:41.640Z,8.04
2022-11-29T00:43:09.291Z,8.01
2022-11-29T00:45:38.266Z,8.18
2022-11-29T00:48:06.151Z,8.21
2022-11-29T00:50:33.725Z,8.12
2022-11-29T00:53:01.375Z,8.25
2022-11-29T00:55:29.018Z,8.16
2022-11-29T00:57:56.649Z,8.19
2022-11-29T01:00:24.340Z,8.20
2022-11-29T01:02:53.347Z,8.10
2022-11-29T01:05:20.925Z,7.89
2022-11-29T01:07:48.595Z,7.99
2022-11-29T01:10:16.251Z,8.03
2022-11-29T01:12:44.039Z,8.03
2022-11-29T01:15:12.188Z,8.00
2022-11-29T01:17:40.748Z,7.94
2022-11-29T01:20:12.740Z,7.87
2022-11-29T01:22:41.231Z,7.88
2022-11-29T01:25:09.995Z,7.87
2022-11-29T01:27:37.605Z,8.08
2022-11-29T01:30:05.747Z,8.17
2022-11-29T01:32:33.504Z,7.99
2022-11-29T01:35:01.278Z,7.95
2022-11-29T01:37:30.811Z,8.05
2022-11-29T01:39:58.517Z,8.19
2022-11-29T01:42:26.332Z,8.29
2022-11-29T01:45:14.579Z,8.28
2022-11-29T01:47:46.865Z,8.31
2022-11-29T01:50:15.203Z,8.32
2022-11-29T01:52:44.650Z,8.37
2022-11-29T01:55:12.571Z,8.41
2022-11-29T01:57:43.566Z,8.41
2022-11-29T02:00:14.122Z,8.42
2022-11-29T02:02:45.353Z,8.44
2022-11-29T02:05:15.820Z,8.41
2022-11-29T02:07:47.424Z,8.41
2022-11-29T02:10:16.596Z,8.10
2022-11-29T02:12:56.001Z,8.04
2022-11-29T02:15:35.071Z,8.05
2022-11-29T02:18:07.819Z,8.12
2022-11-29T02:21:12.359Z,8.20
2022-11-29T02:24:07.358Z,8.26
2022-11-29T02:27:03.554Z,8.23
2022-11-29T02:29:49.966Z,8.23
2022-11-29T02:33:05.025Z,8.28
2022-11-29T02:35:51.941Z,8.02
2022-11-29T02:38:31.393Z,8.08
2022-11-29T02:41:14.156Z,8.14
2022-11-29T02:43:59.372Z,7.93
2022-11-29T02:46:43.535Z,7.98
2022-11-29T02:49:20.767Z,8.04
2022-11-29T02:51:57.850Z,8.08
2022-11-29T02:54:30.809Z,8.08
2022-11-29T02:57:05.957Z,8.12
2022-11-29T02:59:46.412Z,8.15
2022-11-29T03:02:24.011Z,8.16
2022-11-29T03:04:59.833Z,8.10
2022-11-29T03:07:46.019Z,8.10
2022-11-29T03:10:24.454Z,8.11
2022-11-29T03:12:54.941Z,8.09
2022-11-29T03:15:30.174Z,8.15
2022-11-29T03:18:20.729Z,8.11
2022-11-29T03:21:04.356Z,8.13
2022-11-29T03:23:38.845Z,8.10
2022-11-29T03:26:10.044Z,8.08
2022-11-29T03:28:44.310Z,8.11
2022-11-29T03:31:17.212Z,8.07
2022-11-29T03:33:54.688Z,8.10
2022-11-29T03:36:35.096Z,8.14
2022-11-29T03:39:08.519Z,8.13
2022-11-29T03:41:41.290Z,8.10
2022-11-29T03:44:14.015Z,8.03
2022-11-29T03:46:48.886Z,8.02
2022-11-29T03:49:22.556Z,7.98
2022-11-29T03:52:01.688Z,8.03
2022-11-29T03:54:39.199Z,7.95
2022-11-29T03:57:07.667Z,7.97
2022-11-29T03:59:54.910Z,7.99
2022-11-29T04:03:02.924Z,8.03
2022-11-29T04:05:49.262Z,7.97
2022-11-29T04:08:51.243Z,8.00
2022-11-29T04:12:06.616Z,8.05
2022-11-29T04:15:12.787Z,8.03
2022-11-29T04:18:13.318Z,8.02
2022-11-29T04:21:01.559Z,7.97
2022-11-29T04:24:10.403Z,7.97
2022-11-29T04:27:05.217Z,8.09
2022-11-29T04:30:09.744Z,7.95
2022-11-29T04:33:21.016Z,8.03
2022-11-29T04:36:21.991Z,7.96
2022-11-29T04:39:16.353Z,7.82
2022-11-29T04:42:13.314Z,7.98
2022-11-29T04:45:04.770Z,8.02
2022-11-29T04:48:01.868Z,8.07
2022-11-29T04:50:45.157Z,8.11
2022-11-29T04:53:31.083Z,8.09
2022-11-29T04:56:10.086Z,8.04
2022-11-29T04:58:44.643Z,7.92
2022-11-29T05:01:24.386Z,7.89
2022-11-29T05:04:01.969Z,7.81
2022-11-29T05:06:38.329Z,7.89
2022-11-29T05:09:18.722Z,7.98
2022-11-29T05:11:58.756Z,8.06
2022-11-29T05:14:36.826Z,8.03
2022-11-29T05:17:31.700Z,8.06
2022-11-29T05:20:14.362Z,8.06
2022-11-29T05:22:54.041Z,8.02
2022-11-29T05:25:39.694Z,8.01
2022-11-29T05:28:16.149Z,8.00
2022-11-29T05:31:06.599Z,8.08
2022-11-29T05:33:54.481Z,8.04
2022-11-29T05:36:33.906Z,8.07
2022-11-29T05:39:17.662Z,8.12
2022-11-29T05:42:02.291Z,8.12
2022-11-29T05:44:35.057Z,8.06
2022-11-29T05:47:04.598Z,8.10
2022-11-29T05:49:42.188Z,8.15
2022-11-29T05:52:24.440Z,8.11
2022-11-29T05:55:10.713Z,8.10
2022-11-29T05:57:44.427Z,8.11
2022-11-29T06:00:14.656Z,8.09
2022-11-29T06:02:51.010Z,8.09
2022-11-29T06:05:28.309Z,8.12
2022-11-29T06:08:03.697Z,8.11
2022-11-29T06:10:34.860Z,8.08
2022-11-29T06:13:14.140Z,8.05
2022-11-29T06:15:58.735Z,8.08
2022-11-29T06:18:51.424Z,8.02
2022-11-29T06:21:27.464Z,7.91
2022-11-29T06:24:19.475Z,7.93
2022-11-29T06:27:12.329Z,8.00
2022-11-29T06:29:48.347Z,8.05
2022-11-29T06:32:25.400Z,8.06
2022-11-29T06:34:59.173Z,7.97
2022-11-29T06:37:32.404Z,8.04
2022-11-29T06:40:02.035Z,8.06
2022-11-29T06:42:29.706Z,8.08
2022-11-29T06:44:58.026Z,8.11
2022-11-29T06:47:30.110Z,8.04
2022-11-29T06:50:02.119Z,7.99
2022-11-29T06:52:38.667Z,8.04
2022-11-29T06:55:19.151Z,8.07
2022-11-29T06:58:04.753Z,8.08
2022-11-29T07:00:42.686Z,8.08
2022-11-29T07:03:28.680Z,7.98
2022-11-29T07:05:57.999Z,8.01
2022-11-29T07:08:26.330Z,8.00
2022-11-29T07:10:56.182Z,7.90
2022-11-29T07:13:24.372Z,7.83
2022-11-29T07:16:04.830Z,7.89
2022-11-29T07:18:39.967Z,7.90
2022-11-29T07:21:19.169Z,8.02
2022-11-29T07:23:57.963Z,7.96
2022-11-29T07:26:30.896Z,7.99
2022-11-29T07:29:10.916Z,7.83
2022-11-29T07:31:55.879Z,7.80
2022-11-29T07:34:36.546Z,7.87
2022-11-29T07:37:12.340Z,7.87
2022-11-29T07:39:50.487Z,7.93
2022-11-29T07:42:30.393Z,7.83
2022-11-29T07:45:07.490Z,7.83
2022-11-29T07:47:36.325Z,7.87
2022-11-29T07:50:05.051Z,7.87
2022-11-29T07:52:34.676Z,7.72
2022-11-29T07:55:03.798Z,7.64
2022-11-29T07:57:34.002Z,7.62
2022-11-29T08:00:02.650Z,7.51
2022-11-29T08:02:32.127Z,7.58
2022-11-29T08:05:01.981Z,7.67
2022-11-29T08:07:30.736Z,7.68
2022-11-29T08:09:58.190Z,7.67
2022-11-29T08:12:26.891Z,7.62
2022-11-29T08:14:55.774Z,7.57
2022-11-29T08:17:23.255Z,7.47
2022-11-29T08:19:50.845Z,7.33
2022-11-29T08:22:18.516Z,7.22
2022-11-29T08:24:46.514Z,7.23
2022-11-29T08:27:14.342Z,7.09
2022-11-29T08:29:41.900Z,7.29
2022-11-29T08:32:10.957Z,7.18
2022-11-29T08:34:38.586Z,7.23
2022-11-29T08:37:06.291Z,7.22
2022-11-29T08:39:33.861Z,7.21
2022-11-29T08:42:01.558Z,7.18
2022-11-29T08:44:29.297Z,6.95
2022-11-29T08:47:14.524Z,6.94
2022-11-29T08:49:57.336Z,7.03
2022-11-29T08:52:42.785Z,7.06
2022-11-29T08:55:10.835Z,7.17
2022-11-29T08:57:40.462Z,7.35
2022-11-29T09:00:09.683Z,7.41
2022-11-29T09:02:37.477Z,7.31
2022-11-29T09:05:08.029Z,7.30
2022-11-29T09:07:36.097Z,7.19
2022-11-29T09:10:05.430Z,7.29
2022-11-29T09:12:33.682Z,7.19
2022-11-29T09:15:01.377Z,7.12
2022-11-29T09:17:28.926Z,6.96
2022-11-29T09:19:56.530Z,7.03
2022-11-29T09:22:25.507Z,7.18
2022-11-29T09:24:53.071Z,7.10
2022-11-29T09:27:20.669Z,7.32
2022-11-29T09:29:48.291Z,7.37
2022-11-29T09:32:15.903Z,7.58
2022-11-29T09:34:43.894Z,7.49
2022-11-29T09:37:11.620Z,7.25
2022-11-29T09:39:41.655Z,7.24
2022-11-29T09:42:23.417Z,7.10
2022-11-29T09:45:04.112Z,7.15
2022-11-29T09:47:44.917Z,7.20
2022-11-29T09:50:26.584Z,7.07
2022-11-29T09:53:19.071Z,7.48
2022-11-29T09:56:01.022Z,7.56
2022-11-29T09:58:32.816Z,7.51
2022-11-29T10:01:05.168Z,7.72
2022-11-29T10:03:36.516Z,7.78
2022-11-29T10:06:09.701Z,7.67
2022-11-29T10:08:42.540Z,7.07
2022-11-29T10:11:18.921Z,7.30
2022-11-29T10:13:49.978Z,7.38
2022-11-29T10:16:26.613Z,7.50
2022-11-29T10:19:00.966Z,7.55
2022-11-29T10:21:33.476Z,7.35
2022-11-29T10:24:05.450Z,7.28
2022-11-29T10:26:35.457Z,6.91
2022-11-29T10:29:03.390Z,7.34
2022-11-29T10:31:35.816Z,7.63
2022-11-29T10:34:13.457Z,7.66
2022-11-29T10:36:45.599Z,7.53
2022-11-29T10:39:17.709Z,7.49
2022-11-29T10:41:47.708Z,7.53
2022-11-29T10:44:16.013Z,7.55
2022-11-29T10:46:43.927Z,7.54
2022-11-29T10:49:15.956Z,7.67
2022-11-29T10:51:43.878Z,7.84
2022-11-29T10:54:29.495Z,8.02
2022-11-29T10:57:00.617Z,8.00
2022-11-29T10:59:30.561Z,8.13
2022-11-29T11:01:58.748Z,8.18
2022-11-29T11:04:30.054Z,8.18
2022-11-29T11:07:01.247Z,8.07
2022-11-29T11:09:34.923Z,8.06
2022-11-29T11:12:06.018Z,7.95
2022-11-29T11:14:37.437Z,8.21
2022-11-29T11:17:26.896Z,8.15
2022-11-29T11:20:00.771Z,8.16
2022-11-29T11:22:31.295Z,8.33
2022-11-29T11:25:01.686Z,8.46
2022-11-29T11:27:33.625Z,8.14
2022-11-29T11:30:02.547Z,8.42
2022-11-29T11:32:30.215Z,8.80
2022-11-29T11:34:59.426Z,8.94
2022-11-29T11:37:28.865Z,8.98
2022-11-29T11:39:58.737Z,9.11
2022-11-29T11:42:47.020Z,8.91
2022-11-29T11:45:30.962Z,8.90
2022-11-29T11:48:01.050Z,8.93
2022-11-29T11:50:32.553Z,9.17
2022-11-29T11:53:04.883Z,9.09
2022-11-29T11:55:37.527Z,8.91
2022-11-29T11:58:17.529Z,9.06
2022-11-29T12:01:06.030Z,9.43
2022-11-29T12:03:40.572Z,9.57
2022-11-29T12:06:28.322Z,9.55
2022-11-29T12:09:02.230Z,9.20
2022-11-29T12:11:35.074Z,8.81
2022-11-29T12:14:06.117Z,9.15
2022-11-29T12:16:38.954Z,9.53
2022-11-29T12:19:16.076Z,9.44
2022-11-29T12:21:48.521Z,9.61
2022-11-29T12:24:24.929Z,9.72
2022-11-29T12:26:57.593Z,9.82
2022-11-29T12:29:29.821Z,9.87
2022-11-29T12:32:12.372Z,9.47
2022-11-29T12:34:52.307Z,9.67
2022-11-29T12:37:26.751Z,9.86
2022-11-29T12:40:04.283Z,9.85
2022-11-29T12:42:45.881Z,9.52
2022-11-29T12:45:39.827Z,9.43
2022-11-29T12:48:20.752Z,9.51
2022-11-29T12:50:58.120Z,9.54
2022-11-29T12:53:50.092Z,9.66
2022-11-29T12:56:26.867Z,9.84
2022-11-29T12:59:10.586Z,9.38
2022-11-29T13:01:53.676Z,9.49
2022-11-29T13:04:36.229Z,9.59
2022-11-29T13:07:12.189Z,9.33
2022-11-29T13:10:01.248Z,9.34
2022-11-29T13:12:36.220Z,9.19
2022-11-29T13:15:09.865Z,9.40
2022-11-29T13:17:42.293Z,9.46
2022-11-29T13:20:29.654Z,9.23
2022-11-29T13:23:02.073Z,9.41
2022-11-29T13:25:34.620Z,9.53
2022-11-29T13:28:06.749Z,8.93
2022-11-29T13:30:36.029Z,8.81
2022-11-29T13:33:12.442Z,8.72
2022-11-29T13:35:48.024Z,8.51
2022-11-29T13:38:24.050Z,8.76
2022-11-29T13:40:59.091Z,8.79
2022-11-29T13:43:35.025Z,8.73
2022-11-29T13:46:15.752Z,8.88
2022-11-29T13:48:49.144Z,8.97
2022-11-29T13:51:30.921Z,8.80
2022-11-29T13:54:00.745Z,8.94
2022-11-29T13:56:42.798Z,8.62
2022-11-29T13:59:18.478Z,8.79
2022-11-29T14:01:51.379Z,8.76
2022-11-29T14:04:31.085Z,8.82
2022-11-29T14:07:12.396Z,8.86
2022-11-29T14:09:49.268Z,8.95
2022-11-29T14:12:30.997Z,8.66
2022-11-29T14:15:03.771Z,8.65
2022-11-29T14:17:47.432Z,8.53
2022-11-29T14:20:51.664Z,8.63
2022-11-29T14:23:42.267Z,8.70
2022-11-29T14:26:30.437Z,8.74
2022-11-29T14:28:59.608Z,8.45
2022-11-29T14:31:54.268Z,8.47
2022-11-29T14:34:33.968Z,8.29
2022-11-29T14:37:15.440Z,8.25
2022-11-29T14:39:47.885Z,8.14
2022-11-29T14:42:18.713Z,8.01
2022-11-29T14:44:55.205Z,8.10
2022-11-29T14:47:26.297Z,8.26
2022-11-29T14:49:56.059Z,8.21
2022-11-29T14:52:30.507Z,8.10
2022-11-29T14:55:02.668Z,8.27
2022-11-29T14:58:08.863Z,7.87
2022-11-29T15:00:43.299Z,7.97
2022-11-29T15:03:13.848Z,7.80
2022-11-29T15:05:44.181Z,7.85
2022-11-29T15:08:18.829Z,7.92
2022-11-29T15:10:51.133Z,7.74
2022-11-29T15:13:26.971Z,7.55
2022-11-29T15:16:13.804Z,7.58
2022-11-29T15:19:06.897Z,7.55
2022-11-29T15:21:43.730Z,7.47
2022-11-29T15:24:13.547Z,7.45
2022-11-29T15:26:55.898Z,7.38
2022-11-29T15:29:24.140Z,7.22
2022-11-29T15:31:55.108Z,7.21
2022-11-29T15:34:32.478Z,7.19
2022-11-29T15:37:00.808Z,7.02
2022-11-29T15:39:31.893Z,7.20
2022-11-29T15:42:11.225Z,7.03
2022-11-29T15:44:39.357Z,7.09
2022-11-29T15:47:17.852Z,7.08
2022-11-29T15:49:45.476Z,7.17
2022-11-29T15:52:20.931Z,7.22
2022-11-29T15:54:53.516Z,7.43
2022-11-29T15:57:27.375Z,7.37
2022-11-29T15:59:58.023Z,7.39
2022-11-29T16:02:28.889Z,7.44
2022-11-29T16:05:00.876Z,7.42
2022-11-29T16:07:32.273Z,7.31
2022-11-29T16:10:04.698Z,7.33
2022-11-29T16:12:33.739Z,7.35
2022-11-29T16:15:02.423Z,7.38
2022-11-29T16:17:32.588Z,7.26
2022-11-29T16:20:23.620Z,7.43
2022-11-29T16:23:11.456Z,7.37
2022-11-29T16:25:56.914Z,7.34
2022-11-29T16:28:30.468Z,7.43
2022-11-29T16:30:58.514Z,7.43
2022-11-29T16:33:26.151Z,7.31
2022-11-29T16:36:05.202Z,7.40
2022-11-29T16:38:33.110Z,7.42
2022-11-29T16:41:06.411Z,7.34
2022-11-29T16:43:53.428Z,7.39
2022-11-29T16:46:30.240Z,7.42
2022-11-29T16:49:00.807Z,7.35
2022-11-29T16:51:37.273Z,7.44
2022-11-29T16:54:23.127Z,7.26
2022-11-29T16:56:51.819Z,7.47
2022-11-29T16:59:27.465Z,7.48
2022-11-29T17:01:56.795Z,7.40
2022-11-29T17:04:25.303Z,7.39
2022-11-29T17:06:53.705Z,7.42
2022-11-29T17:09:25.123Z,7.44
2022-11-29T17:11:53.230Z,7.42
2022-11-29T17:14:22.342Z,7.63
2022-11-29T17:16:50.390Z,7.55
2022-11-29T17:19:19.754Z,7.48
2022-11-29T17:21:47.577Z,7.54
2022-11-29T17:24:18.242Z,7.57
2022-11-29T17:26:47.016Z,7.41
2022-11-29T17:29:15.472Z,7.51
2022-11-29T17:31:45.464Z,7.51
2022-11-29T17:34:13.123Z,7.54
2022-11-29T17:36:41.956Z,7.47
2022-11-29T17:39:09.561Z,7.35
2022-11-29T17:41:37.139Z,7.37
2022-11-29T17:44:05.172Z,7.38
2022-11-29T17:46:34.427Z,7.41
2022-11-29T17:49:06.167Z,7.27
2022-11-29T17:51:52.362Z,7.42
2022-11-29T17:54:20.788Z,7.48
2022-11-29T17:56:48.571Z,7.50
2022-11-29T17:59:16.480Z,7.62
2022-11-29T18:01:46.829Z,7.52
2022-11-29T18:04:16.069Z,7.49
2022-11-29T18:06:43.806Z,7.53
2022-11-29T18:09:12.768Z,7.56
2022-11-29T18:11:47.453Z,7.57
2022-11-29T18:14:18.003Z,7.54
2022-11-29T18:16:46.153Z,7.48
2022-11-29T18:19:17.061Z,7.48
2022-11-29T18:21:45.209Z,7.55
2022-11-29T18:24:13.212Z,7.52
2022-11-29T18:26:41.288Z,7.41
2022-11-29T18:29:09.835Z,7.56
2022-11-29T18:31:39.121Z,7.47
2022-11-29T18:34:09.544Z,7.48
2022-11-29T18:36:42.806Z,7.35
2022-11-29T18:39:13.855Z,7.53
2022-11-29T18:41:43.036Z,7.47
2022-11-29T18:44:12.736Z,7.52
2022-11-29T18:46:42.986Z,7.56
2022-11-29T18:49:12.179Z,7.67
2022-11-29T18:51:42.970Z,7.70
2022-11-29T18:54:10.946Z,7.55
2022-11-29T18:56:39.555Z,7.58
2022-11-29T18:59:10.161Z,7.57
2022-11-29T19:01:41.098Z,7.59
2022-11-29T19:04:10.414Z,7.44
2022-11-29T19:06:39.901Z,7.43
2022-11-29T19:09:13.235Z,7.37
2022-11-29T19:11:41.458Z,7.29
2022-11-29T19:14:12.398Z,7.44
2022-11-29T19:16:41.919Z,7.40
2022-11-29T19:19:09.716Z,7.50
2022-11-29T19:21:39.547Z,7.65
2022-11-29T19:24:14.673Z,7.67
2022-11-29T19:26:44.409Z,7.73
2022-11-29T19:29:13.018Z,7.80
2022-11-29T19:31:40.718Z,7.82
2022-11-29T19:34:08.449Z,7.79
2022-11-29T19:36:37.292Z,7.63
2022-11-29T19:39:04.885Z,7.52
2022-11-29T19:41:35.102Z,7.59
2022-11-29T19:44:04.722Z,7.63
2022-11-29T19:46:34.930Z,7.62
2022-11-29T19:49:03.384Z,7.63
2022-11-29T19:51:31.985Z,7.60
2022-11-29T19:54:02.001Z,7.63
2022-11-29T19:56:30.730Z,7.65
2022-11-29T19:59:00.716Z,7.59
2022-11-29T20:01:39.295Z,7.68
2022-11-29T20:04:08.418Z,7.80
2022-11-29T20:06:36.275Z,7.83
2022-11-29T20:09:04.390Z,7.85
2022-11-29T20:11:32.011Z,7.82
2022-11-29T20:14:02.318Z,7.88
2022-11-29T20:16:31.147Z,7.81
2022-11-29T20:18:59.010Z,7.80
2022-11-29T20:21:28.506Z,7.89
2022-11-29T20:23:57.272Z,7.91
2022-11-29T20:26:24.742Z,7.98
2022-11-29T20:28:52.427Z,7.88
2022-11-29T20:31:23.177Z,7.95
2022-11-29T20:33:53.506Z,7.99
2022-11-29T20:36:38.694Z,8.01
2022-11-29T20:39:18.252Z,8.04
2022-11-29T20:41:51.841Z,8.00
2022-11-29T20:44:22.777Z,7.96
2022-11-29T20:46:52.191Z,7.99
2022-11-29T20:49:20.214Z,8.03
2022-11-29T20:51:56.416Z,8.07
2022-11-29T20:54:24.114Z,8.15
2022-11-29T20:56:51.748Z,8.20
2022-11-29T20:59:19.294Z,8.21
2022-11-29T21:01:47.038Z,8.25
2022-11-29T21:04:21.626Z,8.29
2022-11-29T21:06:50.838Z,8.30
2022-11-29T21:09:18.422Z,8.34
2022-11-29T21:11:46.619Z,8.36
2022-11-29T21:14:15.031Z,8.36
2022-11-29T21:16:43.080Z,8.40
2022-11-29T21:19:18.031Z,8.41
2022-11-29T21:21:58.857Z,8.45
2022-11-29T21:24:38.725Z,8.47
2022-11-29T21:27:12.899Z,8.31
2022-11-29T21:29:42.657Z,8.47
2022-11-29T21:32:25.210Z,8.51
2022-11-29T21:34:54.543Z,8.53
2022-11-29T21:37:27.437Z,8.53
2022-11-29T21:39:56.076Z,8.59
2022-11-29T21:42:23.713Z,8.58
2022-11-29T21:44:51.317Z,8.56
2022-11-29T21:47:18.991Z,8.58
2022-11-29T21:49:47.122Z,8.58
2022-11-29T21:52:20.696Z,8.57
2022-11-29T21:54:51.403Z,8.57
2022-11-29T21:57:19.063Z,8.58
2022-11-29T21:59:47.192Z,8.59
2022-11-29T22:02:15.119Z,8.57
2022-11-29T22:04:43.126Z,8.61
2022-11-29T22:07:10.827Z,8.56
2022-11-29T22:09:38.430Z,8.61
2022-11-29T22:12:31.963Z,8.58
2022-11-29T22:14:55.343Z,8.63
2022-11-29T22:17:22.889Z,8.66
2022-11-29T22:19:50.418Z,8.67
2022-11-29T22:22:18.023Z,8.70
2022-11-29T22:24:46.119Z,8.65
2022-11-29T22:27:17.633Z,8.68
2022-11-29T22:29:45.176Z,8.68
2022-11-29T22:32:12.830Z,8.70
2022-11-29T22:34:40.387Z,8.70
2022-11-29T22:37:08.011Z,8.72
2022-11-29T22:39:35.635Z,8.71
2022-11-29T22:42:03.233Z,8.72
2022-11-29T22:44:32.252Z,8.75
2022-11-29T22:46:59.979Z,8.72
2022-11-29T22:49:27.596Z,8.69
2022-11-29T22:51:55.181Z,8.72
2022-11-29T22:54:22.773Z,8.73
2022-11-29T22:56:50.384Z,8.72
2022-11-29T22:59:17.896Z,8.71
2022-11-29T23:01:46.985Z,8.58
2022-11-29T23:04:14.778Z,8.65
2022-11-29T23:06:43.714Z,8.58
2022-11-29T23:09:15.958Z,8.65
2022-11-29T23:11:44.228Z,8.51
2022-11-29T23:14:12.002Z,8.43
2022-11-29T23:16:39.710Z,8.37
2022-11-29T23:19:08.731Z,8.43
2022-11-29T23:21:38.060Z,8.47
2022-11-29T23:24:06.185Z,8.43
2022-11-29T23:26:37.408Z,8.41
2022-11-29T23:29:05.755Z,8.38
2022-11-29T23:31:34.428Z,8.33
2022-11-29T23:34:02.223Z,8.30
2022-11-29T23:36:31.481Z,8.36
2022-11-29T23:38:59.179Z,8.39
2022-11-29T23:41:26.928Z,8.22
2022-11-29T23:43:54.505Z,8.23
2022-11-29T23:46:23.695Z,8.15
2022-11-29T23:48:51.778Z,8.35
2022-11-29T23:51:20.437Z,8.35
2022-11-29T23:53:53.272Z,8.22
2022-11-29T23:56:21.665Z,8.28
2022-11-29T23:58:49.830Z,8.16
